Time;durP1;ratioP1;P1;durP2;ratioP2;P2;SDS_P1;SDS_P2;PMS_P1;PMS_P2;Temp;Humidity;BMP_temperature;BMP_pressure;BME280_temperature;BME280_humidity;BME280_pressure;Samples;Min_cycle;Max_cycle;Signal;HPM_P1;HPM_P2
2023/05/06 00:00:26;;;;;;;16.90;9.10;;;;;;;;;;5073622;28;20253;-89
2023/05/06 00:02:55;;;;;;;11.43;9.00;;;;;;;;;;5073386;28;20199;-89
2023/05/06 00:05:23;;;;;;;7.57;5.27;;;;;;;;;;5073116;28;20269;-88
2023/05/06 00:07:52;;;;;;;2.77;2.47;;;;;;;;;;5073379;28;20289;-88
2023/05/06 00:10:21;;;;;;;3.17;2.47;;;;;;;;;;5073037;28;20223;-88
2023/05/06 00:12:50;;;;;;;12.67;9.30;;;;;;;;;;5072848;28;20257;-88
2023/05/06 00:15:19;;;;;;;1.23;1.23;;;;;;;;;;5072905;28;20204;-88
2023/05/06 00:17:47;;;;;;;2.93;1.70;;;;;;;;;;5073009;28;20230;-88
2023/05/06 00:20:16;;;;;;;9.50;4.43;;;;;;;;;;5072727;28;20216;-88
2023/05/06 00:22:44;;;;;;;4.53;3.60;;;;;;;;;;5073216;28;20306;-88
2023/05/06 00:25:13;;;;;;;15.33;9.43;;;;;;;;;;5073547;28;20310;-88
2023/05/06 00:27:41;;;;;;;18.27;11.87;;;;;;;;;;5072670;28;20225;-88
2023/05/06 00:30:12;;;;;;;9.47;6.87;;;;;;;;;;5072587;28;20205;-88
2023/05/06 00:32:41;;;;;;;20.70;12.83;;;;;;;;;;5072690;28;20199;-88
2023/05/06 00:35:09;;;;;;;11.27;7.80;;;;;;;;;;5072180;28;20208;-88
2023/05/06 00:37:38;;;;;;;12.40;9.07;;;;;;;;;;5072722;28;20191;-88
2023/05/06 00:40:07;;;;;;;13.73;9.40;;;;;;;;;;5072514;28;20254;-88
2023/05/06 00:42:36;;;;;;;16.13;12.37;;;;;;;;;;5072471;28;20208;-88
2023/05/06 00:45:04;;;;;;;15.90;10.70;;;;;;;;;;5072758;28;20237;-88
2023/05/06 00:47:34;;;;;;;16.87;13.00;;;;;;;;;;5072464;28;20205;-88
2023/05/06 00:50:03;;;;;;;13.33;7.37;;;;;;;;;;5072324;28;20259;-88
2023/05/06 00:52:32;;;;;;;8.50;5.30;;;;;;;;;;5072083;28;20204;-88
2023/05/06 00:55:00;;;;;;;10.43;7.83;;;;;;;;;;5072279;28;20206;-88
2023/05/06 00:57:29;;;;;;;21.80;15.00;;;;;;;;;;5072224;28;20203;-89
2023/05/06 00:59:57;;;;;;;16.03;12.47;;;;;;;;;;5072358;28;20234;-89
2023/05/06 01:02:26;;;;;;;19.37;14.37;;;;;;;;;;5071958;28;20254;-88
2023/05/06 01:05:15;;;;;;;21.80;15.47;;;;;;;;;;5072168;28;20199;-88
2023/05/06 01:07:47;;;;;;;22.40;13.67;;;;;;;;;;5071818;28;20198;-88
2023/05/06 01:10:21;;;;;;;20.00;13.50;;;;;;;;;;5072281;28;20234;-89
2023/05/06 01:12:52;;;;;;;21.67;15.57;;;;;;;;;;5072295;28;20202;-88
2023/05/06 01:15:22;;;;;;;21.97;15.20;;;;;;;;;;5071653;28;20198;-89
2023/05/06 01:17:51;;;;;;;20.63;13.67;;;;;;;;;;5072016;28;20263;-88
2023/05/06 01:20:21;;;;;;;5.93;4.83;;;;;;;;;;5071575;28;20238;-88
2023/05/06 01:22:50;;;;;;;14.50;12.30;;;;;;;;;;5071441;28;20241;-89
2023/05/06 01:25:20;;;;;;;11.00;7.80;;;;;;;;;;5071499;28;20291;-88
2023/05/06 01:27:49;;;;;;;20.93;13.53;;;;;;;;;;5071877;28;20245;-88
2023/05/06 01:30:20;;;;;;;4.40;4.10;;;;;;;;;;5071426;28;20233;-89
2023/05/06 01:32:53;;;;;;;1.80;1.53;;;;;;;;;;5072177;28;20201;-89
2023/05/06 01:35:25;;;;;;;5.83;3.37;;;;;;;;;;5071847;28;20202;-88
2023/05/06 01:37:58;;;;;;;2.10;1.97;;;;;;;;;;5071343;28;20203;-88
2023/05/06 01:40:31;;;;;;;1.00;1.00;;;;;;;;;;5071702;28;20345;-89
2023/05/06 01:43:01;;;;;;;0.53;0.53;;;;;;;;;;5071541;28;20260;-89
2023/05/06 01:45:31;;;;;;;0.60;0.60;;;;;;;;;;5071212;28;20194;-89
2023/05/06 01:48:00;;;;;;;1.33;1.23;;;;;;;;;;5071953;28;20205;-89
2023/05/06 01:50:28;;;;;;;2.20;2.10;;;;;;;;;;5071100;28;20188;-89
2023/05/06 01:52:58;;;;;;;1.90;1.80;;;;;;;;;;5070989;28;20191;-89
2023/05/06 01:55:27;;;;;;;0.60;0.60;;;;;;;;;;5071225;28;20248;-89
2023/05/06 01:57:57;;;;;;;1.97;1.87;;;;;;;;;;5071087;28;20198;-88
2023/05/06 02:00:27;;;;;;;1.43;1.33;;;;;;;;;;5071019;28;20221;-89
2023/05/06 02:02:55;;;;;;;12.17;8.30;;;;;;;;;;5071383;28;20208;-89
2023/05/06 02:05:25;;;;;;;12.93;10.47;;;;;;;;;;5071613;28;20201;-89
2023/05/06 02:07:53;;;;;;;3.23;2.97;;;;;;;;;;5071353;28;20260;-89
2023/05/06 02:10:22;;;;;;;3.57;3.33;;;;;;;;;;5070965;28;20241;-89
2023/05/06 02:12:50;;;;;;;1.63;1.63;;;;;;;;;;5071383;28;20294;-89
2023/05/06 02:15:20;;;;;;;12.47;9.17;;;;;;;;;;5071432;28;20259;-89
2023/05/06 02:17:49;;;;;;;9.80;7.40;;;;;;;;;;5071199;28;20271;-88
2023/05/06 02:20:17;;;;;;;16.20;12.40;;;;;;;;;;5073827;28;20224;-89
2023/05/06 02:22:46;;;;;;;20.80;14.60;;;;;;;;;;5075443;28;20214;-88
2023/05/06 02:25:14;;;;;;;25.37;17.23;;;;;;;;;;5075031;28;20202;-89
2023/05/06 02:27:43;;;;;;;24.07;17.93;;;;;;;;;;5075271;28;20222;-89
2023/05/06 02:30:13;;;;;;;24.67;17.83;;;;;;;;;;5075643;28;20231;-89
2023/05/06 02:32:43;;;;;;;15.67;10.33;;;;;;;;;;5075433;28;20205;-89
2023/05/06 02:35:11;;;;;;;1.60;1.57;;;;;;;;;;5075630;28;20213;-89
2023/05/06 02:37:40;;;;;;;16.70;10.53;;;;;;;;;;5075244;28;20243;-89
2023/05/06 02:40:09;;;;;;;20.17;13.97;;;;;;;;;;5075130;28;20259;-89
2023/05/06 02:42:37;;;;;;;23.50;15.47;;;;;;;;;;5075212;28;20253;-89
2023/05/06 02:45:06;;;;;;;21.97;14.53;;;;;;;;;;5074674;28;20221;-89
2023/05/06 02:47:35;;;;;;;25.50;16.27;;;;;;;;;;5074856;28;20215;-89
2023/05/06 02:50:05;;;;;;;15.57;13.03;;;;;;;;;;5074725;28;20201;-88
2023/05/06 02:52:33;;;;;;;17.83;13.30;;;;;;;;;;5075310;28;20199;-88
2023/05/06 02:55:02;;;;;;;21.73;15.07;;;;;;;;;;5074936;28;20276;-88
2023/05/06 02:57:30;;;;;;;22.33;14.73;;;;;;;;;;5074363;28;20208;-88
2023/05/06 02:59:59;;;;;;;18.83;14.77;;;;;;;;;;5074332;28;20289;-89
2023/05/06 03:02:27;;;;;;;25.80;15.17;;;;;;;;;;5074783;28;20273;-88
2023/05/06 03:04:56;;;;;;;13.67;11.30;;;;;;;;;;5074482;28;20246;-89
2023/05/06 03:07:26;;;;;;;13.33;9.13;;;;;;;;;;5074604;28;20248;-88
2023/05/06 03:09:54;;;;;;;18.50;12.03;;;;;;;;;;5074402;28;20248;-89
2023/05/06 03:12:23;;;;;;;15.60;10.30;;;;;;;;;;5073577;28;20206;-89
2023/05/06 03:14:51;;;;;;;16.27;11.13;;;;;;;;;;5074607;28;20197;-89
2023/05/06 03:17:20;;;;;;;6.57;5.93;;;;;;;;;;5074302;28;20202;-89
2023/05/06 03:19:50;;;;;;;4.87;4.53;;;;;;;;;;5073921;28;20252;-89
2023/05/06 03:22:20;;;;;;;0.70;0.70;;;;;;;;;;5074238;28;20221;-89
2023/05/06 03:24:50;;;;;;;3.83;2.83;;;;;;;;;;5074197;28;20209;-89
2023/05/06 03:27:18;;;;;;;25.13;13.83;;;;;;;;;;5073859;28;20227;-88
2023/05/06 03:29:47;;;;;;;7.43;6.63;;;;;;;;;;5073862;28;20190;-89
2023/05/06 03:32:16;;;;;;;9.23;8.13;;;;;;;;;;5073950;28;20202;-89
2023/05/06 03:34:44;;;;;;;4.60;3.50;;;;;;;;;;5073746;28;20252;-89
2023/05/06 03:37:12;;;;;;;5.30;4.03;;;;;;;;;;5073940;28;20264;-89
2023/05/06 03:39:41;;;;;;;2.10;2.00;;;;;;;;;;5074049;28;20264;-89
2023/05/06 03:42:11;;;;;;;9.07;5.57;;;;;;;;;;5073918;28;20214;-88
2023/05/06 03:44:39;;;;;;;8.30;5.63;;;;;;;;;;5073752;28;20210;-88
2023/05/06 03:47:07;;;;;;;6.50;5.97;;;;;;;;;;5073848;28;20209;-88
2023/05/06 03:49:36;;;;;;;1.50;1.13;;;;;;;;;;5073644;28;20221;-88
2023/05/06 03:52:05;;;;;;;0.80;0.80;;;;;;;;;;5073595;28;20198;-89
2023/05/06 03:54:34;;;;;;;2.30;2.20;;;;;;;;;;5073514;28;20206;-89
2023/05/06 03:57:03;;;;;;;4.13;3.73;;;;;;;;;;5073424;28;20267;-89
2023/05/06 03:59:32;;;;;;;1.93;1.87;;;;;;;;;;5073440;28;20195;-88
2023/05/06 04:02:01;;;;;;;1.17;1.17;;;;;;;;;;5073323;28;20215;-89
2023/05/06 04:04:30;;;;;;;0.70;0.70;;;;;;;;;;5073829;28;20210;-89
2023/05/06 04:06:58;;;;;;;11.07;8.53;;;;;;;;;;5073010;28;20206;-89
2023/05/06 04:09:26;;;;;;;6.97;4.03;;;;;;;;;;5073448;28;20206;-89
2023/05/06 04:11:55;;;;;;;24.03;18.13;;;;;;;;;;5072795;28;20244;-89
2023/05/06 04:14:24;;;;;;;22.43;16.80;;;;;;;;;;5072811;28;20248;-89
2023/05/06 04:16:54;;;;;;;24.23;16.27;;;;;;;;;;5073222;28;20202;-89
2023/05/06 04:19:22;;;;;;;19.67;15.43;;;;;;;;;;5073441;28;20233;-89
2023/05/06 04:21:51;;;;;;;5.83;4.63;;;;;;;;;;5072778;28;20225;-89
2023/05/06 04:24:20;;;;;;;23.87;16.20;;;;;;;;;;5073372;28;20292;-89
2023/05/06 04:26:48;;;;;;;24.40;18.50;;;;;;;;;;5072820;28;20267;-89
2023/05/06 04:29:17;;;;;;;25.37;17.40;;;;;;;;;;5072970;28;20229;-89
2023/05/06 04:31:46;;;;;;;23.43;16.60;;;;;;;;;;5072957;28;20198;-89
2023/05/06 04:34:16;;;;;;;9.17;7.03;;;;;;;;;;5073266;28;20197;-89
2023/05/06 04:36:46;;;;;;;20.73;15.83;;;;;;;;;;5072711;28;20217;-89
2023/05/06 04:39:15;;;;;;;22.40;18.03;;;;;;;;;;5072129;28;20193;-89
2023/05/06 04:41:43;;;;;;;9.70;7.20;;;;;;;;;;5072266;28;20212;-89
2023/05/06 04:44:12;;;;;;;1.13;1.13;;;;;;;;;;5072701;28;20198;-89
2023/05/06 04:46:40;;;;;;;1.10;1.10;;;;;;;;;;5072203;28;20273;-89
2023/05/06 04:49:09;;;;;;;1.07;1.07;;;;;;;;;;5072574;28;20207;-89
2023/05/06 04:51:41;;;;;;;1.57;1.57;;;;;;;;;;5072250;28;20251;-88
2023/05/06 04:54:09;;;;;;;3.23;3.03;;;;;;;;;;5072122;28;20197;-88
2023/05/06 04:56:38;;;;;;;8.20;5.67;;;;;;;;;;5072680;28;20228;-89
2023/05/06 04:59:06;;;;;;;2.33;2.23;;;;;;;;;;5072397;28;20230;-89
2023/05/06 05:01:35;;;;;;;1.13;1.13;;;;;;;;;;5072050;28;20199;-88
2023/05/06 05:04:04;;;;;;;0.80;0.80;;;;;;;;;;5072560;28;20230;-89
2023/05/06 05:06:32;;;;;;;1.40;1.30;;;;;;;;;;5072441;28;20204;-89
2023/05/06 05:09:02;;;;;;;7.93;3.80;;;;;;;;;;5072189;28;20203;-89
2023/05/06 05:11:31;;;;;;;2.57;2.37;;;;;;;;;;5072085;28;20276;-89
2023/05/06 05:13:59;;;;;;;1.93;1.83;;;;;;;;;;5072843;28;20204;-89
2023/05/06 05:16:29;;;;;;;3.97;3.77;;;;;;;;;;5072701;28;20208;-89
2023/05/06 05:18:58;;;;;;;1.07;1.07;;;;;;;;;;5072272;28;20241;-88
2023/05/06 05:21:30;;;;;;;0.70;0.70;;;;;;;;;;5072547;28;20211;-87
2023/05/06 05:23:59;;;;;;;1.63;1.63;;;;;;;;;;5071949;28;20224;-89
2023/05/06 05:26:28;;;;;;;0.83;0.83;;;;;;;;;;5072127;28;20203;-89
2023/05/06 05:28:57;;;;;;;3.03;2.30;;;;;;;;;;5072233;28;20200;-88
2023/05/06 05:31:25;;;;;;;4.43;3.33;;;;;;;;;;5072763;28;20202;-88
2023/05/06 05:33:54;;;;;;;3.17;2.93;;;;;;;;;;5071731;28;20203;-89
2023/05/06 05:36:22;;;;;;;2.07;1.97;;;;;;;;;;5072703;28;20264;-89
2023/05/06 05:38:54;;;;;;;7.93;5.80;;;;;;;;;;5072022;28;20196;-89
2023/05/06 05:41:22;;;;;;;4.50;4.20;;;;;;;;;;5072000;28;20257;-89
2023/05/06 05:43:52;;;;;;;1.33;1.33;;;;;;;;;;5072267;28;20218;-89
2023/05/06 05:46:21;;;;;;;4.00;3.70;;;;;;;;;;5072171;28;20201;-89
2023/05/06 05:48:49;;;;;;;2.60;2.27;;;;;;;;;;5071874;28;20202;-89
2023/05/06 05:51:18;;;;;;;2.10;2.00;;;;;;;;;;5071577;28;20301;-89
2023/05/06 05:53:46;;;;;;;1.63;1.63;;;;;;;;;;5071759;28;20219;-89
2023/05/06 05:56:15;;;;;;;6.63;6.13;;;;;;;;;;5071964;28;20199;-88
2023/05/06 05:58:46;;;;;;;2.73;2.53;;;;;;;;;;5071835;28;20378;-88
2023/05/06 06:01:16;;;;;;;0.70;0.70;;;;;;;;;;5071717;28;20199;-88
2023/05/06 06:03:44;;;;;;;0.70;0.70;;;;;;;;;;5071251;28;20262;-89
2023/05/06 06:06:13;;;;;;;10.07;8.50;;;;;;;;;;5071416;28;20199;-89
2023/05/06 06:08:42;;;;;;;2.73;2.50;;;;;;;;;;5071542;28;20235;-88
2023/05/06 06:11:10;;;;;;;14.63;11.00;;;;;;;;;;5071484;28;20334;-89
2023/05/06 06:13:39;;;;;;;14.77;11.57;;;;;;;;;;5071453;28;20200;-89
2023/05/06 06:16:07;;;;;;;24.03;18.57;;;;;;;;;;5071584;28;20254;-88
2023/05/06 06:18:37;;;;;;;0.77;0.77;;;;;;;;;;5071853;28;20208;-88
2023/05/06 06:21:06;;;;;;;17.77;12.70;;;;;;;;;;5071690;28;20201;-89
2023/05/06 06:23:34;;;;;;;15.83;11.37;;;;;;;;;;5071658;28;20238;-88
2023/05/06 06:26:03;;;;;;;0.60;0.60;;;;;;;;;;5072082;28;20197;-88
2023/05/06 06:28:31;;;;;;;15.63;10.13;;;;;;;;;;5071746;28;20311;-88
2023/05/06 06:31:00;;;;;;;1.00;1.00;;;;;;;;;;5071632;28;20212;-88
2023/05/06 06:33:29;;;;;;;16.97;11.73;;;;;;;;;;5071726;28;20235;-89
2023/05/06 06:35:59;;;;;;;23.23;15.70;;;;;;;;;;5071157;28;20295;-90
2023/05/06 06:38:27;;;;;;;22.57;16.57;;;;;;;;;;5072112;28;20295;-89
2023/05/06 06:40:56;;;;;;;22.93;19.20;;;;;;;;;;5070949;28;20234;-89
2023/05/06 06:43:25;;;;;;;30.03;22.03;;;;;;;;;;5070836;28;20316;-89
2023/05/06 06:45:56;;;;;;;7.47;5.20;;;;;;;;;;5070865;28;20291;-89
2023/05/06 06:48:25;;;;;;;24.97;20.53;;;;;;;;;;5071642;28;20204;-90
2023/05/06 06:50:54;;;;;;;25.43;20.83;;;;;;;;;;5070946;28;20269;-89
2023/05/06 06:53:24;;;;;;;25.87;20.97;;;;;;;;;;5071259;28;20196;-89
2023/05/06 06:55:53;;;;;;;26.77;19.57;;;;;;;;;;5070568;28;20193;-89
2023/05/06 06:58:21;;;;;;;21.60;15.63;;;;;;;;;;5070680;28;20205;-89
2023/05/06 07:00:50;;;;;;;23.23;11.80;;;;;;;;;;5070816;28;20197;-89
2023/05/06 07:03:19;;;;;;;22.53;15.40;;;;;;;;;;5071234;28;20278;-89
2023/05/06 07:05:47;;;;;;;23.07;15.60;;;;;;;;;;5071895;28;20215;-89
2023/05/06 07:08:16;;;;;;;28.53;18.70;;;;;;;;;;5074002;28;20261;-89
2023/05/06 07:10:46;;;;;;;19.13;11.80;;;;;;;;;;5074430;28;20239;-88
2023/05/06 07:13:15;;;;;;;2.80;2.60;;;;;;;;;;5074327;28;20189;-89
2023/05/06 07:15:44;;;;;;;5.77;5.20;;;;;;;;;;5074422;28;20287;-89
2023/05/06 07:18:12;;;;;;;2.00;1.80;;;;;;;;;;5074411;28;20196;-88
2023/05/06 07:20:41;;;;;;;12.03;8.97;;;;;;;;;;5074417;28;20201;-88
2023/05/06 07:23:09;;;;;;;4.60;4.00;;;;;;;;;;5074241;28;20251;-89
2023/05/06 07:25:38;;;;;;;3.17;2.87;;;;;;;;;;5074060;28;20216;-89
2023/05/06 07:28:08;;;;;;;2.83;2.63;;;;;;;;;;5074347;28;20224;-90
2023/05/06 07:30:38;;;;;;;5.63;4.67;;;;;;;;;;5073887;28;20288;-89
2023/05/06 07:33:07;;;;;;;0.80;0.80;;;;;;;;;;5073915;28;20209;-89
2023/05/06 07:35:37;;;;;;;17.97;8.93;;;;;;;;;;5074194;28;20213;-90
2023/05/06 07:38:05;;;;;;;2.87;2.63;;;;;;;;;;5073852;28;20239;-89
2023/05/06 07:40:34;;;;;;;12.10;10.10;;;;;;;;;;5073854;28;20210;-89
2023/05/06 07:43:02;;;;;;;14.47;8.73;;;;;;;;;;5074233;28;20218;-89
2023/05/06 07:45:32;;;;;;;4.47;3.80;;;;;;;;;;5073542;28;20271;-89
2023/05/06 07:48:01;;;;;;;0.63;0.63;;;;;;;;;;5073503;28;20206;-89
2023/05/06 07:50:30;;;;;;;15.97;6.60;;;;;;;;;;5074381;28;20304;-89
2023/05/06 07:53:00;;;;;;;5.20;3.43;;;;;;;;;;5074186;28;20210;-89
2023/05/06 07:55:30;;;;;;;5.90;5.30;;;;;;;;;;5073568;28;20202;-89
2023/05/06 07:58:01;;;;;;;1.37;1.37;;;;;;;;;;5073145;28;20205;-89
2023/05/06 08:00:29;;;;;;;15.20;8.57;;;;;;;;;;5073383;28;20204;-89
2023/05/06 08:02:59;;;;;;;7.67;4.43;;;;;;;;;;5073312;28;20205;-89
2023/05/06 08:05:28;;;;;;;3.20;3.10;;;;;;;;;;5073431;28;20218;-89
2023/05/06 08:07:56;;;;;;;1.83;1.73;;;;;;;;;;5073258;28;20205;-89
2023/05/06 08:10:25;;;;;;;2.63;2.50;;;;;;;;;;5073152;28;20286;-88
2023/05/06 08:12:53;;;;;;;2.27;2.07;;;;;;;;;;5073178;28;20255;-88
2023/05/06 08:15:22;;;;;;;1.07;1.07;;;;;;;;;;5073175;28;20198;-89
2023/05/06 08:17:50;;;;;;;5.50;2.47;;;;;;;;;;5071631;28;20208;-89
2023/05/06 08:20:20;;;;;;;0.50;0.50;;;;;;;;;;5072963;28;20209;-89
2023/05/06 08:22:49;;;;;;;1.00;1.00;;;;;;;;;;5072844;28;20237;-88
2023/05/06 08:25:17;;;;;;;0.40;0.40;;;;;;;;;;5072688;28;20292;-89
2023/05/06 08:27:46;;;;;;;0.40;0.40;;;;;;;;;;5072789;28;20230;-89
2023/05/06 08:30:15;;;;;;;6.23;3.10;;;;;;;;;;5072620;28;20191;-89
2023/05/06 08:32:44;;;;;;;1.50;1.43;;;;;;;;;;5072628;28;20198;-89
2023/05/06 08:35:12;;;;;;;0.60;0.60;;;;;;;;;;5072830;28;20196;-89
2023/05/06 08:37:42;;;;;;;0.83;0.83;;;;;;;;;;5072562;28;20252;-89
2023/05/06 08:40:16;;;;;;;0.50;0.50;;;;;;;;;;5072708;28;20198;-89
2023/05/06 08:42:46;;;;;;;0.30;0.30;;;;;;;;;;5072203;28;20251;-89
2023/05/06 08:45:15;;;;;;;1.83;1.33;;;;;;;;;;5072671;28;20222;-89
2023/05/06 08:47:44;;;;;;;5.20;2.70;;;;;;;;;;5072775;28;20269;-88
2023/05/06 08:50:12;;;;;;;0.97;0.97;;;;;;;;;;5072757;28;20263;-89
2023/05/06 08:52:41;;;;;;;9.57;2.20;;;;;;;;;;5072556;28;20211;-89
2023/05/06 08:55:11;;;;;;;1.23;1.23;;;;;;;;;;5072877;28;20201;-89
2023/05/06 08:57:41;;;;;;;6.97;2.40;;;;;;;;;;5072500;28;20200;-89
2023/05/06 09:00:10;;;;;;;1.27;1.27;;;;;;;;;;5072646;28;20262;-89
2023/05/06 09:02:39;;;;;;;5.00;2.10;;;;;;;;;;5072663;28;20205;-89
2023/05/06 09:05:11;;;;;;;3.10;2.53;;;;;;;;;;5071988;28;20311;-89
2023/05/06 09:07:40;;;;;;;5.37;3.83;;;;;;;;;;5071967;28;20204;-89
2023/05/06 09:10:16;;;;;;;8.57;3.93;;;;;;;;;;5072565;28;20239;-89
2023/05/06 09:12:45;;;;;;;13.17;3.87;;;;;;;;;;5072250;28;20207;-88
2023/05/06 09:15:14;;;;;;;2.00;1.77;;;;;;;;;;5072621;28;20210;-88
2023/05/06 09:17:42;;;;;;;4.13;2.50;;;;;;;;;;5071985;28;20202;-88
2023/05/06 09:20:12;;;;;;;9.97;3.93;;;;;;;;;;5071896;28;20213;-89
2023/05/06 09:22:43;;;;;;;7.63;3.60;;;;;;;;;;5071977;28;20243;-88
2023/05/06 09:25:13;;;;;;;2.90;2.50;;;;;;;;;;5072077;28;20212;-88
2023/05/06 09:27:41;;;;;;;3.87;0.93;;;;;;;;;;5071245;28;20219;-88
2023/05/06 09:30:11;;;;;;;1.97;1.77;;;;;;;;;;5071759;28;20260;-88
2023/05/06 09:32:40;;;;;;;4.27;2.80;;;;;;;;;;5072112;28;20200;-87
2023/05/06 09:35:10;;;;;;;3.17;2.57;;;;;;;;;;5071819;28;20202;-89
2023/05/06 09:37:39;;;;;;;4.07;1.63;;;;;;;;;;5071747;28;20206;-88
2023/05/06 09:40:09;;;;;;;4.97;1.93;;;;;;;;;;5072401;28;20203;-89
2023/05/06 09:42:39;;;;;;;7.20;2.43;;;;;;;;;;5071549;28;20191;-89
2023/05/06 09:45:09;;;;;;;0.40;0.40;;;;;;;;;;5072078;28;20230;-89
2023/05/06 09:47:38;;;;;;;12.57;5.83;;;;;;;;;;5071778;28;20205;-89
2023/05/06 09:50:07;;;;;;;7.60;4.00;;;;;;;;;;5072089;28;20213;-89
2023/05/06 09:52:35;;;;;;;11.47;5.10;;;;;;;;;;5071664;28;20255;-89
2023/05/06 09:55:07;;;;;;;11.63;7.20;;;;;;;;;;5071659;28;20210;-89
2023/05/06 09:57:37;;;;;;;9.53;6.27;;;;;;;;;;5071709;28;20194;-89
2023/05/06 10:00:10;;;;;;;12.43;5.27;;;;;;;;;;5071689;28;20260;-89
2023/05/06 10:02:40;;;;;;;12.00;6.77;;;;;;;;;;5071915;28;20197;-89
2023/05/06 10:05:10;;;;;;;3.70;1.10;;;;;;;;;;5071578;28;20313;-89
2023/05/06 10:07:39;;;;;;;4.03;2.33;;;;;;;;;;5071362;28;20263;-89
2023/05/06 10:10:12;;;;;;;1.87;1.37;;;;;;;;;;5071969;28;20235;-89
2023/05/06 10:12:40;;;;;;;5.50;2.17;;;;;;;;;;5071683;28;20201;-89
2023/05/06 10:15:14;;;;;;;1.63;1.53;;;;;;;;;;5071106;28;20191;-89
2023/05/06 10:17:46;;;;;;;0.67;0.67;;;;;;;;;;5071782;28;20212;-89
2023/05/06 10:20:16;;;;;;;0.60;0.60;;;;;;;;;;5071269;28;20256;-89
2023/05/06 10:22:51;;;;;;;3.73;2.63;;;;;;;;;;5071342;28;20232;-89
2023/05/06 10:25:28;;;;;;;0.70;0.70;;;;;;;;;;5071256;28;20250;-89
2023/05/06 10:27:57;;;;;;;5.17;2.73;;;;;;;;;;5071336;28;20291;-89
2023/05/06 10:30:33;;;;;;;12.47;2.27;;;;;;;;;;5071271;28;20201;-90
2023/05/06 10:33:04;;;;;;;4.13;2.40;;;;;;;;;;5071498;28;20202;-89
2023/05/06 10:35:36;;;;;;;0.67;0.67;;;;;;;;;;5071883;28;20191;-89
2023/05/06 10:38:07;;;;;;;0.60;0.60;;;;;;;;;;5071693;28;20203;-89
2023/05/06 10:40:36;;;;;;;2.13;2.03;;;;;;;;;;5072428;28;20206;-89
2023/05/06 10:43:23;;;;;;;1.57;1.57;;;;;;;;;;5075272;28;20230;-89
2023/05/06 10:46:03;;;;;;;2.93;2.27;;;;;;;;;;5075202;28;20238;-90
2023/05/06 10:48:32;;;;;;;6.67;3.97;;;;;;;;;;5075970;28;20204;-89
2023/05/06 10:51:21;;;;;;;8.27;3.77;;;;;;;;;;5075420;28;20200;-89
2023/05/06 10:53:56;;;;;;;6.87;4.27;;;;;;;;;;5074780;28;20268;-89
2023/05/06 10:56:25;;;;;;;1.63;1.00;;;;;;;;;;5075157;28;20199;-89
2023/05/06 10:58:55;;;;;;;5.50;3.07;;;;;;;;;;5075127;28;20278;-89
2023/05/06 11:01:26;;;;;;;7.17;3.37;;;;;;;;;;5075014;28;20194;-89
2023/05/06 11:03:55;;;;;;;3.77;1.17;;;;;;;;;;5074612;28;20265;-89
2023/05/06 11:06:33;;;;;;;2.13;1.17;;;;;;;;;;5075101;28;20231;-89
2023/05/06 11:09:03;;;;;;;1.40;1.30;;;;;;;;;;5074382;28;20203;-89
2023/05/06 11:11:51;;;;;;;1.50;1.40;;;;;;;;;;5074279;28;20231;-88
2023/05/06 11:14:30;;;;;;;1.43;1.33;;;;;;;;;;5074511;28;20256;-88
2023/05/06 11:17:01;;;;;;;9.70;3.93;;;;;;;;;;5074228;28;20261;-88
2023/05/06 11:19:30;;;;;;;2.47;1.27;;;;;;;;;;5074089;28;20224;-88
2023/05/06 11:21:59;;;;;;;1.03;1.03;;;;;;;;;;5074216;28;20206;-88
2023/05/06 11:24:28;;;;;;;1.77;1.33;;;;;;;;;;5074009;28;20331;-88
2023/05/06 11:26:57;;;;;;;0.70;0.70;;;;;;;;;;5074012;28;20239;-88
2023/05/06 11:29:29;;;;;;;1.20;0.50;;;;;;;;;;5074467;28;20265;-88
2023/05/06 11:31:57;;;;;;;5.37;2.23;;;;;;;;;;5073995;28;20199;-88
2023/05/06 11:34:28;;;;;;;3.20;1.07;;;;;;;;;;5073759;28;20298;-88
2023/05/06 11:37:00;;;;;;;9.87;4.10;;;;;;;;;;5073768;28;20229;-88
2023/05/06 11:39:30;;;;;;;1.07;0.73;;;;;;;;;;5073620;28;20211;-88
2023/05/06 11:42:05;;;;;;;1.70;0.97;;;;;;;;;;5073855;28;20237;-89
2023/05/06 11:44:35;;;;;;;2.40;1.13;;;;;;;;;;5074009;28;20202;-90
2023/05/06 11:47:05;;;;;;;2.23;1.27;;;;;;;;;;5074302;28;20217;-90
2023/05/06 11:49:38;;;;;;;1.10;1.10;;;;;;;;;;5074125;28;20212;-90
2023/05/06 11:52:07;;;;;;;1.23;1.07;;;;;;;;;;5073707;28;20227;-90
2023/05/06 11:54:36;;;;;;;3.00;1.47;;;;;;;;;;5074242;28;20260;-90
2023/05/06 11:57:04;;;;;;;2.03;1.83;;;;;;;;;;5073581;28;20198;-90
2023/05/06 11:59:33;;;;;;;1.50;1.40;;;;;;;;;;5073666;28;20200;-88
2023/05/06 12:02:03;;;;;;;1.83;0.93;;;;;;;;;;5073950;28;20229;-88
2023/05/06 12:04:39;;;;;;;3.17;2.23;;;;;;;;;;5073288;28;20209;-88
2023/05/06 12:07:09;;;;;;;7.83;4.27;;;;;;;;;;5073287;28;20223;-89
2023/05/06 12:09:38;;;;;;;5.50;2.60;;;;;;;;;;5073452;28;20258;-88
2023/05/06 12:12:07;;;;;;;8.40;3.30;;;;;;;;;;5072630;28;20231;-88
2023/05/06 12:14:36;;;;;;;7.23;3.97;;;;;;;;;;5073512;28;20197;-90
2023/05/06 12:17:05;;;;;;;0.80;0.80;;;;;;;;;;5073518;28;20197;-90
2023/05/06 12:19:34;;;;;;;6.13;3.03;;;;;;;;;;5073770;28;20211;-90
2023/05/06 12:22:17;;;;;;;3.67;2.30;;;;;;;;;;5073613;28;20198;-90
2023/05/06 12:24:45;;;;;;;10.13;4.33;;;;;;;;;;5073491;28;20200;-90
2023/05/06 12:27:14;;;;;;;2.20;1.83;;;;;;;;;;5073468;28;20260;-90
2023/05/06 12:29:52;;;;;;;2.13;1.97;;;;;;;;;;5073269;28;20229;-90
2023/05/06 12:32:21;;;;;;;1.83;1.73;;;;;;;;;;5073607;28;20275;-90
2023/05/06 12:34:49;;;;;;;3.07;2.77;;;;;;;;;;5073228;28;20206;-90
2023/05/06 12:37:26;;;;;;;4.60;4.20;;;;;;;;;;5072904;28;20208;-90
2023/05/06 12:39:54;;;;;;;3.30;3.00;;;;;;;;;;5073043;28;20204;-90
2023/05/06 12:42:35;;;;;;;4.20;3.27;;;;;;;;;;5073135;28;20254;-90
2023/05/06 12:45:16;;;;;;;2.57;1.33;;;;;;;;;;5073025;28;20228;-90
2023/05/06 12:47:53;;;;;;;5.03;3.17;;;;;;;;;;5073004;28;20217;-90
2023/05/06 12:50:32;;;;;;;6.40;3.33;;;;;;;;;;5073691;28;20233;-90
2023/05/06 12:53:02;;;;;;;0.60;0.60;;;;;;;;;;5072139;28;20215;-89
2023/05/06 12:55:32;;;;;;;9.97;4.20;;;;;;;;;;5072708;28;20211;-89
2023/05/06 12:58:01;;;;;;;5.60;1.97;;;;;;;;;;5072636;28;20555;-88
2023/05/06 13:00:30;;;;;;;2.50;1.83;;;;;;;;;;5072502;28;20208;-88
2023/05/06 13:02:58;;;;;;;2.13;1.73;;;;;;;;;;5071766;28;20264;-88
2023/05/06 13:05:27;;;;;;;3.10;2.47;;;;;;;;;;5072353;28;20269;-88
2023/05/06 13:07:55;;;;;;;2.27;2.10;;;;;;;;;;5071526;28;20275;-88
2023/05/06 13:10:26;;;;;;;1.20;1.17;;;;;;;;;;5072000;28;20237;-88
2023/05/06 13:12:55;;;;;;;0.80;0.80;;;;;;;;;;5072472;28;20208;-88
2023/05/06 13:15:24;;;;;;;6.53;3.50;;;;;;;;;;5072365;28;20236;-88
2023/05/06 13:17:53;;;;;;;1.47;1.37;;;;;;;;;;5072070;28;20202;-88
2023/05/06 13:20:21;;;;;;;5.30;3.47;;;;;;;;;;5072265;28;20217;-89
2023/05/06 13:22:50;;;;;;;5.67;3.53;;;;;;;;;;5071819;28;20199;-89
2023/05/06 13:25:23;;;;;;;7.67;5.10;;;;;;;;;;5071697;28;20287;-88
2023/05/06 13:27:53;;;;;;;11.13;5.90;;;;;;;;;;5071860;28;20233;-88
2023/05/06 13:30:21;;;;;;;8.90;6.20;;;;;;;;;;5072006;28;20209;-88
2023/05/06 13:32:50;;;;;;;7.47;4.90;;;;;;;;;;5071385;28;20285;-88
2023/05/06 13:35:19;;;;;;;8.27;5.30;;;;;;;;;;5072032;28;20208;-88
2023/05/06 13:37:48;;;;;;;6.83;3.20;;;;;;;;;;5071580;28;20242;-88
2023/05/06 13:40:16;;;;;;;2.97;1.67;;;;;;;;;;5071822;28;20195;-88
2023/05/06 13:42:45;;;;;;;3.20;2.90;;;;;;;;;;5071943;28;20218;-88
2023/05/06 13:45:14;;;;;;;2.87;2.17;;;;;;;;;;5071970;28;20297;-89
2023/05/06 13:47:43;;;;;;;4.70;2.93;;;;;;;;;;5071711;28;20222;-88
2023/05/06 13:50:12;;;;;;;5.10;3.37;;;;;;;;;;5071646;28;20207;-89
2023/05/06 13:52:40;;;;;;;2.33;2.20;;;;;;;;;;5071675;28;20208;-88
2023/05/06 13:55:09;;;;;;;1.50;0.93;;;;;;;;;;5071378;28;20198;-88
2023/05/06 13:57:38;;;;;;;3.57;2.17;;;;;;;;;;5071644;28;20252;-89
2023/05/06 14:00:09;;;;;;;0.77;0.77;;;;;;;;;;5071715;28;20203;-88
2023/05/06 14:02:39;;;;;;;1.87;1.77;;;;;;;;;;5071744;28;20198;-88
2023/05/06 14:05:08;;;;;;;1.17;0.83;;;;;;;;;;5071400;28;20199;-88
2023/05/06 14:07:37;;;;;;;7.17;3.77;;;;;;;;;;5071614;28;20247;-88
2023/05/06 14:10:08;;;;;;;5.77;4.17;;;;;;;;;;5071150;28;20197;-87
2023/05/06 14:12:36;;;;;;;8.93;5.80;;;;;;;;;;5071570;28;20199;-88
2023/05/06 14:15:06;;;;;;;10.07;5.47;;;;;;;;;;5071576;28;20202;-88
2023/05/06 14:17:34;;;;;;;1.87;1.63;;;;;;;;;;5075391;28;20201;-88
2023/05/06 14:20:05;;;;;;;1.07;1.07;;;;;;;;;;5075180;28;20197;-88
2023/05/06 14:22:33;;;;;;;3.60;2.07;;;;;;;;;;5075160;28;20193;-89
2023/05/06 14:25:02;;;;;;;1.33;1.33;;;;;;;;;;5075581;28;20275;-88
2023/05/06 14:27:31;;;;;;;0.90;0.90;;;;;;;;;;5075116;28;20281;-88
2023/05/06 14:29:59;;;;;;;1.60;1.50;;;;;;;;;;5075236;28;20199;-88
2023/05/06 14:32:28;;;;;;;4.03;3.73;;;;;;;;;;5074938;28;20198;-88
2023/05/06 14:34:56;;;;;;;1.63;1.53;;;;;;;;;;5075135;28;20209;-89
2023/05/06 14:37:26;;;;;;;2.73;2.17;;;;;;;;;;5075335;28;20256;-88
2023/05/06 14:39:55;;;;;;;9.57;4.03;;;;;;;;;;5075180;28;20209;-88
2023/05/06 14:42:23;;;;;;;8.27;3.83;;;;;;;;;;5074916;28;20202;-88
2023/05/06 14:44:52;;;;;;;4.57;3.30;;;;;;;;;;5074858;28;20218;-88
2023/05/06 14:47:20;;;;;;;7.20;5.10;;;;;;;;;;5074751;28;20252;-88
2023/05/06 14:49:49;;;;;;;3.40;2.80;;;;;;;;;;5074159;28;20192;-88